West Andover, Ohio
Current Conditions -  °F | °C
As of 8:53 AM on Thursday 23 Oct 2014 (Local Time) from KHZY Reporting Station
Clear Clear  
Wind Chill: 45°   Ceiling: Unl
Heat Index: 45°   Visibility: 10mi
Dew Point: 43°   Wind: 3mph
Humidity: 93%   Direction: 310°NW
Pressure: 30.19"   Gusts: NA
Location:  41.6317°N, 80.577°W
Report Text: KHZY 231253Z AUTO 31003KT 10SM CLR 07/06 A3019 RMK AO2 SLP226 T00720061
Loading
Personal Weather Stations






























Interactive Weather Map New forecast layout! Learn more

10-Day Weather Forecast

Advertisements
Track Severe Weather on mobile